Iuna, Brazil
Current Conditions -  °F | °C
As of 3:00 PM on Monday 20 Oct 2014 (Local Time) from SBVT Reporting Station
Clear Clear  
Wind Chill: 84°   Ceiling: Unl
Heat Index: 87°   Visibility: 5mi
Dew Point: 68°   Wind: 13mph
Humidity: 58%   Direction: 50°NE
Pressure: 29.83"   Gusts: NA
Location:  20.34°S, 41.54°W
Report Text: SBVT 201800Z 05011KT 8000 NSC 29/20 Q1010
Loading
Personal Weather Stations






























Interactive Weather Map
Tropical Storm Tracking
New forecast layout! Learn more

10-Day Weather Forecast

Advertisements
Track Severe Weather on mobile